createdAt,value
2023-03-04T00:01:15.913Z,41.78
2023-03-04T00:03:42.926Z,40.72
2023-03-04T00:06:09.844Z,40.35
2023-03-04T00:08:36.434Z,41.53
2023-03-04T00:11:02.961Z,40.75
2023-03-04T00:13:29.534Z,43.38
2023-03-04T00:15:56.201Z,41.13
2023-03-04T00:18:22.944Z,42.63
2023-03-04T00:20:52.584Z,40.83
2023-03-04T00:23:19.125Z,40.92
2023-03-04T00:25:45.667Z,42.80
2023-03-04T00:28:12.220Z,41.78
2023-03-04T00:30:38.820Z,42.25
2023-03-04T00:33:05.376Z,42.47
2023-03-04T00:35:31.967Z,42.30
2023-03-04T00:37:58.511Z,42.50
2023-03-04T00:40:25.031Z,42.70
2023-03-04T00:42:51.571Z,44.58
2023-03-04T00:45:18.231Z,43.80
2023-03-04T00:47:44.838Z,44.67
2023-03-04T00:50:11.708Z,43.97
2023-03-04T00:52:38.326Z,42.67
2023-03-04T00:55:05.892Z,42.45
2023-03-04T00:57:32.426Z,42.67
2023-03-04T00:59:58.947Z,45.13
2023-03-04T01:02:25.537Z,43.85
2023-03-04T01:04:52.341Z,43.47
2023-03-04T01:07:18.927Z,42.95
2023-03-04T01:09:45.486Z,43.50
2023-03-04T01:12:12.321Z,44.15
2023-03-04T01:14:38.875Z,45.83
2023-03-04T01:17:05.650Z,43.53
2023-03-04T01:19:32.369Z,45.80
2023-03-04T01:21:58.927Z,46.40
2023-03-04T01:24:25.521Z,45.20
2023-03-04T01:26:52.107Z,47.58
2023-03-04T01:29:18.685Z,45.58
2023-03-04T01:31:45.247Z,48.67
2023-03-04T01:34:11.836Z,46.03
2023-03-04T01:36:38.375Z,46.80
2023-03-04T01:39:05.359Z,46.78
2023-03-04T01:41:32.563Z,47.17
2023-03-04T01:44:02.291Z,47.42
2023-03-04T01:46:30.102Z,47.38
2023-03-04T01:48:57.134Z,46.58
2023-03-04T01:51:24.417Z,49.83
2023-03-04T01:53:53.496Z,46.05
2023-03-04T01:56:24.855Z,47.67
2023-03-04T01:59:10.979Z,48.53
2023-03-04T02:01:38.629Z,49.80
2023-03-04T02:04:06.362Z,47.20
2023-03-04T02:06:33.009Z,48.58
2023-03-04T02:08:59.714Z,47.97
2023-03-04T02:11:26.805Z,48.40
2023-03-04T02:13:53.532Z,48.45
2023-03-04T02:16:20.147Z,50.72
2023-03-04T02:18:46.733Z,48.58
2023-03-04T02:21:33.143Z,50.85
2023-03-04T02:24:11.880Z,48.88
2023-03-04T02:26:41.411Z,50.28
2023-03-04T02:29:11.424Z,49.30
2023-03-04T02:31:40.344Z,49.55
2023-03-04T02:34:16.402Z,50.25
2023-03-04T02:36:44.227Z,48.90
2023-03-04T02:39:15.206Z,50.58
2023-03-04T02:41:44.364Z,51.85
2023-03-04T02:44:34.663Z,51.33
2023-03-04T02:47:02.240Z,49.67
2023-03-04T02:49:31.780Z,50.10
2023-03-04T02:52:07.127Z,50.60
2023-03-04T02:54:34.437Z,50.72
2023-03-04T02:57:04.528Z,49.53
2023-03-04T02:59:31.092Z,47.28
2023-03-04T03:01:58.061Z,50.72
2023-03-04T03:04:26.978Z,48.97
2023-03-04T03:06:53.627Z,51.10
2023-03-04T03:09:20.976Z,51.15
2023-03-04T03:11:47.583Z,48.75
2023-03-04T03:14:14.410Z,50.20
2023-03-04T03:16:41.012Z,52.15
2023-03-04T03:19:07.549Z,49.85
2023-03-04T03:21:34.095Z,50.85
2023-03-04T03:24:00.631Z,52.67
2023-03-04T03:26:27.173Z,51.70
2023-03-04T03:28:53.842Z,48.88
2023-03-04T03:31:20.417Z,53.08
2023-03-04T03:33:47.217Z,51.20
2023-03-04T03:36:14.016Z,54.17
2023-03-04T03:38:40.630Z,51.70
2023-03-04T03:41:07.152Z,52.10
2023-03-04T03:43:33.828Z,50.70
2023-03-04T03:46:00.394Z,51.45
2023-03-04T03:48:26.956Z,50.00
2023-03-04T03:50:53.663Z,52.70
2023-03-04T03:53:20.306Z,51.63
2023-03-04T03:55:46.804Z,50.67
2023-03-04T03:58:13.594Z,50.53
2023-03-04T04:00:40.137Z,51.47
2023-03-04T04:03:06.832Z,52.17
2023-03-04T04:05:33.422Z,50.75
2023-03-04T04:07:59.998Z,52.60
2023-03-04T04:10:26.521Z,51.83
2023-03-04T04:12:53.079Z,51.22
2023-03-04T04:15:19.786Z,54.42
2023-03-04T04:17:46.348Z,50.92
2023-03-04T04:20:12.960Z,50.88
2023-03-04T04:22:39.505Z,49.85
2023-03-04T04:25:08.845Z,52.30
2023-03-04T04:27:35.460Z,51.13
2023-03-04T04:30:02.167Z,52.22
2023-03-04T04:32:28.804Z,49.03
2023-03-04T04:34:55.384Z,49.63
2023-03-04T04:37:22.012Z,54.10
2023-03-04T04:39:48.632Z,51.38
2023-03-04T04:42:15.239Z,51.58
2023-03-04T04:44:41.766Z,50.90
2023-03-04T04:47:09.980Z,51.35
2023-03-04T04:49:36.518Z,50.78
2023-03-04T04:52:03.353Z,51.50
2023-03-04T04:54:30.012Z,52.03
2023-03-04T04:56:56.595Z,50.80
2023-03-04T04:59:23.424Z,53.72
2023-03-04T05:01:50.087Z,50.13
2023-03-04T05:04:16.682Z,54.03
2023-03-04T05:06:43.358Z,50.97
2023-03-04T05:09:09.944Z,53.30
2023-03-04T05:11:36.512Z,52.45
2023-03-04T05:14:03.222Z,51.70
2023-03-04T05:16:29.743Z,53.65
2023-03-04T05:18:56.302Z,50.67
2023-03-04T05:21:22.954Z,51.78
2023-03-04T05:23:49.493Z,50.75
2023-03-04T05:26:17.623Z,49.35
2023-03-04T05:28:44.946Z,46.92
2023-03-04T05:31:11.639Z,50.70
2023-03-04T05:33:38.605Z,48.53
2023-03-04T05:36:07.156Z,50.38
2023-03-04T05:38:34.452Z,50.05
2023-03-04T05:41:04.161Z,47.97
2023-03-04T05:43:31.851Z,47.38
2023-03-04T05:45:58.393Z,44.60
2023-03-04T05:48:25.040Z,43.50
2023-03-04T05:51:00.804Z,43.17
2023-03-04T05:53:28.603Z,42.97
2023-03-04T05:55:55.536Z,34.03
2023-03-04T05:58:22.873Z,30.52
2023-03-04T06:00:49.400Z,31.98
2023-03-04T06:03:18.284Z,29.70
2023-03-04T06:05:45.312Z,30.77
2023-03-04T06:08:12.868Z,30.80
2023-03-04T06:10:40.944Z,28.98
2023-03-04T06:13:08.652Z,29.73
2023-03-04T06:15:35.225Z,28.27
2023-03-04T06:18:02.293Z,27.73
2023-03-04T06:20:29.078Z,28.35
2023-03-04T06:22:55.626Z,28.38
2023-03-04T06:25:23.316Z,27.88
2023-03-04T06:27:50.876Z,29.42
2023-03-04T06:30:18.552Z,26.85
2023-03-04T06:32:46.209Z,28.02
2023-03-04T06:35:14.757Z,27.52
2023-03-04T06:37:41.845Z,26.30
2023-03-04T06:40:10.571Z,27.60
2023-03-04T06:42:37.457Z,26.90
2023-03-04T06:45:04.992Z,27.38
2023-03-04T06:47:31.650Z,26.13
2023-03-04T06:49:58.369Z,28.55
2023-03-04T06:52:25.183Z,28.40
2023-03-04T06:54:51.768Z,29.05
2023-03-04T06:57:18.402Z,27.25
2023-03-04T06:59:44.957Z,27.92
2023-03-04T07:02:12.880Z,28.52
2023-03-04T07:04:41.276Z,29.40
2023-03-04T07:07:07.854Z,28.60
2023-03-04T07:09:34.376Z,28.73
2023-03-04T07:12:01.083Z,27.83
2023-03-04T07:14:28.064Z,28.52
2023-03-04T07:16:54.900Z,28.33
2023-03-04T07:19:21.862Z,29.08
2023-03-04T07:21:48.483Z,28.40
2023-03-04T07:24:15.354Z,29.00
2023-03-04T07:26:41.978Z,27.98
2023-03-04T07:29:08.508Z,27.30
2023-03-04T07:31:36.819Z,27.92
2023-03-04T07:34:06.491Z,25.73
2023-03-04T07:36:35.873Z,27.13
2023-03-04T07:39:03.716Z,26.67
2023-03-04T07:41:31.061Z,25.15
2023-03-04T07:43:58.684Z,25.85
2023-03-04T07:46:25.732Z,24.75
2023-03-04T07:48:52.284Z,26.13
2023-03-04T07:51:20.999Z,25.73
2023-03-04T07:53:49.951Z,24.75
2023-03-04T07:56:23.741Z,23.92
2023-03-04T07:58:52.398Z,22.30
2023-03-04T08:01:31.125Z,21.60
2023-03-04T08:03:58.215Z,20.65
2023-03-04T08:06:26.899Z,21.05
2023-03-04T08:09:03.260Z,17.15
2023-03-04T08:11:31.118Z,18.50
2023-03-04T08:13:58.183Z,18.50
2023-03-04T08:16:25.775Z,16.77
2023-03-04T08:18:56.841Z,13.98
2023-03-04T08:21:25.626Z,13.90
2023-03-04T08:23:53.190Z,13.43
2023-03-04T08:26:34.188Z,12.25
2023-03-04T08:29:02.546Z,13.57
2023-03-04T08:31:29.201Z,13.80
2023-03-04T08:33:56.641Z,13.43
2023-03-04T08:36:23.236Z,12.27
2023-03-04T08:38:49.777Z,14.18
2023-03-04T08:41:16.915Z,11.93
2023-03-04T08:43:44.175Z,12.10
2023-03-04T08:46:10.830Z,14.13
2023-03-04T08:48:38.350Z,13.60
2023-03-04T08:51:10.135Z,14.10
2023-03-04T08:53:37.893Z,14.63
2023-03-04T08:56:05.553Z,13.32
2023-03-04T08:58:32.108Z,13.75
2023-03-04T09:01:00.062Z,12.77
2023-03-04T09:03:26.640Z,13.30
2023-03-04T09:05:53.376Z,14.05
2023-03-04T09:08:19.948Z,14.90
2023-03-04T09:10:47.149Z,14.27
2023-03-04T09:13:17.053Z,12.80
2023-03-04T09:15:48.645Z,13.00
2023-03-04T09:18:15.823Z,12.20
2023-03-04T09:20:42.443Z,12.82
2023-03-04T09:23:09.745Z,12.35
2023-03-04T09:25:37.976Z,13.23
2023-03-04T09:28:06.196Z,12.32
2023-03-04T09:30:34.326Z,11.95
2023-03-04T09:33:01.260Z,13.15
2023-03-04T09:35:30.080Z,13.15
2023-03-04T09:37:58.880Z,11.77
2023-03-04T09:40:29.840Z,10.63
2023-03-04T09:43:06.416Z,11.63
2023-03-04T09:45:40.172Z,12.00
2023-03-04T09:48:10.394Z,10.70
2023-03-04T09:50:44.100Z,11.90
2023-03-04T09:53:20.079Z,11.43
2023-03-04T09:55:50.362Z,11.43
2023-03-04T09:58:25.546Z,11.05
2023-03-04T10:01:02.355Z,10.95
2023-03-04T10:03:48.369Z,13.15
2023-03-04T10:06:21.328Z,10.82
2023-03-04T10:09:02.660Z,11.60
2023-03-04T10:11:40.016Z,10.63
2023-03-04T10:14:33.670Z,11.30
2023-03-04T10:17:09.600Z,10.75
2023-03-04T10:19:41.348Z,9.93
2023-03-04T10:22:27.007Z,10.05
2023-03-04T10:24:58.923Z,10.63
2023-03-04T10:29:52.656Z,9.48
2023-03-04T10:32:20.784Z,10.35
2023-03-04T10:34:47.786Z,10.75
2023-03-04T10:37:14.338Z,8.93
2023-03-04T10:39:43.788Z,9.90
2023-03-04T10:42:16.543Z,11.00
2023-03-04T10:45:03.567Z,9.57
2023-03-04T10:47:33.149Z,9.77
2023-03-04T10:50:05.559Z,8.38
2023-03-04T10:52:46.632Z,9.68
2023-03-04T10:55:28.734Z,10.07
2023-03-04T11:00:26.721Z,8.35
2023-03-04T11:02:53.291Z,7.47
2023-03-04T11:05:21.631Z,8.88
2023-03-04T11:07:56.979Z,10.00
2023-03-04T11:10:25.443Z,10.55
2023-03-04T11:13:00.474Z,8.20
2023-03-04T11:15:29.382Z,7.80
2023-03-04T11:18:10.463Z,7.80
2023-03-04T11:20:41.582Z,9.18
2023-03-04T11:23:17.014Z,8.80
2023-03-04T11:26:00.179Z,10.68
2023-03-04T11:28:45.106Z,8.77
2023-03-04T11:31:20.458Z,8.35
2023-03-04T11:34:00.436Z,8.02
2023-03-04T11:36:32.980Z,7.57
2023-03-04T11:39:01.813Z,7.30
2023-03-04T11:41:41.627Z,7.30
2023-03-04T11:44:09.227Z,7.53
2023-03-04T11:47:28.863Z,7.35
2023-03-04T11:50:27.257Z,7.50
2023-03-04T11:53:02.586Z,7.20
2023-03-04T11:55:38.220Z,7.68
2023-03-04T11:58:16.444Z,7.22
2023-03-04T12:00:52.929Z,7.45
2023-03-04T12:03:27.692Z,7.45
2023-03-04T12:06:02.991Z,7.50
2023-03-04T12:08:47.745Z,7.57
2023-03-04T12:11:26.084Z,7.47
2023-03-04T12:14:20.974Z,10.85
2023-03-04T12:17:34.636Z,8.23
2023-03-04T12:20:01.102Z,8.55
2023-03-04T12:22:30.365Z,8.77
2023-03-04T12:25:24.612Z,6.05
2023-03-04T12:28:00.108Z,7.22
2023-03-04T12:30:41.514Z,7.43
2023-03-04T12:33:14.270Z,6.68
2023-03-04T12:35:55.616Z,6.75
2023-03-04T12:39:00.790Z,7.15
2023-03-04T12:42:08.161Z,6.90
2023-03-04T12:45:00.779Z,6.95
2023-03-04T12:47:35.706Z,8.15
2023-03-04T12:50:11.083Z,7.07
2023-03-04T12:52:48.479Z,7.63
2023-03-04T12:55:19.012Z,7.13
2023-03-04T12:57:46.305Z,7.18
2023-03-04T13:00:30.819Z,7.10
2023-03-04T13:03:46.979Z,7.50
2023-03-04T13:06:32.278Z,6.72
2023-03-04T13:09:30.062Z,7.13
2023-03-04T13:12:22.433Z,6.82
2023-03-04T13:15:07.462Z,7.18
2023-03-04T13:17:36.992Z,6.38
2023-03-04T13:20:20.472Z,7.05
2023-03-04T13:23:06.641Z,6.53
2023-03-04T13:25:39.972Z,7.38
2023-03-04T13:28:13.523Z,7.00
2023-03-04T13:30:59.989Z,6.53
2023-03-04T13:33:26.546Z,6.93
2023-03-04T13:36:04.220Z,7.18
2023-03-04T13:38:34.891Z,6.53
2023-03-04T13:41:16.729Z,6.53
2023-03-04T13:43:56.848Z,6.78
2023-03-04T13:46:24.101Z,6.80
2023-03-04T13:48:50.825Z,6.22
2023-03-04T13:51:29.414Z,5.88
2023-03-04T13:53:59.820Z,6.75
2023-03-04T13:56:37.600Z,5.60
2023-03-04T13:59:07.250Z,5.93
2023-03-04T14:01:42.889Z,5.97
2023-03-04T14:04:25.317Z,6.07
2023-03-04T14:06:54.344Z,6.30
2023-03-04T14:09:25.162Z,5.50
2023-03-04T14:11:54.216Z,5.70
2023-03-04T14:14:25.192Z,5.97
2023-03-04T14:17:01.386Z,4.78
2023-03-04T14:19:30.975Z,5.07
2023-03-04T14:22:02.303Z,4.10
2023-03-04T14:24:30.934Z,4.68
2023-03-04T14:27:14.364Z,4.78
2023-03-04T14:29:40.902Z,4.45
2023-03-04T14:32:08.247Z,4.68
2023-03-04T14:34:38.302Z,4.28
2023-03-04T14:37:21.650Z,4.88
2023-03-04T14:39:51.749Z,5.28
2023-03-04T14:42:21.639Z,4.35
2023-03-04T14:44:51.031Z,4.45
2023-03-04T14:47:20.888Z,4.47
2023-03-04T14:49:47.846Z,4.55
2023-03-04T14:52:34.656Z,4.32
2023-03-04T14:55:22.432Z,4.20
2023-03-04T14:57:58.586Z,4.18
2023-03-04T15:00:29.617Z,4.45
2023-03-04T15:02:58.974Z,4.55
2023-03-04T15:05:32.768Z,3.78
2023-03-04T15:08:07.086Z,4.18
2023-03-04T15:10:36.055Z,4.22
2023-03-04T15:13:06.720Z,4.18
2023-03-04T15:15:40.294Z,4.18
2023-03-04T15:18:26.619Z,4.13
2023-03-04T15:20:59.171Z,3.63
2023-03-04T15:23:27.243Z,4.05
2023-03-04T15:25:56.602Z,4.68
2023-03-04T15:28:24.691Z,4.32
2023-03-04T15:30:51.818Z,5.32
2023-03-04T15:33:21.048Z,4.38
2023-03-04T15:35:57.193Z,3.63
2023-03-04T15:38:25.359Z,4.20
2023-03-04T15:40:54.473Z,3.83
2023-03-04T15:43:23.018Z,4.45
2023-03-04T15:45:51.151Z,3.90
2023-03-04T15:48:18.863Z,3.40
2023-03-04T15:50:56.085Z,3.30
2023-03-04T15:53:39.819Z,3.80
2023-03-04T15:56:12.163Z,4.03
2023-03-04T15:58:39.468Z,3.97
2023-03-04T16:01:06.356Z,3.50
2023-03-04T16:03:33.171Z,4.00
2023-03-04T16:06:00.079Z,3.40
2023-03-04T16:08:26.819Z,2.90
2023-03-04T16:10:54.236Z,2.90
2023-03-04T16:13:23.499Z,3.05
2023-03-04T16:15:50.240Z,3.92
2023-03-04T16:18:17.607Z,3.60
2023-03-04T16:20:49.657Z,4.45
2023-03-04T16:25:49.550Z,3.85
2023-03-04T16:28:16.544Z,2.92
2023-03-04T16:30:43.602Z,3.03
2023-03-04T16:33:11.475Z,3.00
2023-03-04T16:35:39.639Z,3.47
2023-03-04T16:38:18.776Z,3.20
2023-03-04T16:40:45.321Z,3.10
2023-03-04T16:43:13.942Z,5.70
2023-03-04T16:45:41.375Z,6.38
2023-03-04T16:48:07.985Z,4.45
2023-03-04T16:50:36.844Z,4.50
2023-03-04T16:53:04.506Z,5.22
2023-03-04T16:55:31.854Z,4.47
2023-03-04T16:57:58.586Z,3.97
2023-03-04T17:00:28.026Z,3.90
2023-03-04T17:02:57.585Z,3.42
2023-03-04T17:05:26.676Z,4.07
2023-03-04T17:07:53.296Z,3.40
2023-03-04T17:10:20.998Z,3.75
2023-03-04T17:12:47.905Z,3.15
2023-03-04T17:15:15.405Z,3.50
2023-03-04T17:17:43.236Z,3.63
2023-03-04T17:20:13.642Z,3.35
2023-03-04T17:22:40.740Z,3.53
2023-03-04T17:25:08.027Z,3.38
2023-03-04T17:27:34.800Z,3.13
2023-03-04T17:30:01.488Z,3.50
2023-03-04T17:32:28.581Z,3.25
2023-03-04T17:34:55.849Z,3.40
2023-03-04T17:37:22.896Z,3.65
2023-03-04T17:39:49.494Z,3.35
2023-03-04T17:42:16.198Z,3.72
2023-03-04T17:44:42.937Z,3.78
2023-03-04T17:47:09.521Z,3.72
2023-03-04T17:49:36.160Z,3.75
2023-03-04T17:52:04.325Z,3.60
2023-03-04T17:54:32.056Z,3.42
2023-03-04T17:56:58.685Z,3.50
2023-03-04T17:59:25.208Z,3.90
2023-03-04T18:01:54.220Z,3.85
2023-03-04T18:04:21.278Z,5.72
2023-03-04T18:06:48.063Z,5.05
2023-03-04T18:09:14.866Z,3.72
2023-03-04T18:11:42.451Z,4.32
2023-03-04T18:14:09.170Z,4.32
2023-03-04T18:16:35.795Z,4.38
2023-03-04T18:19:02.970Z,3.78
2023-03-04T18:21:30.472Z,4.50
2023-03-04T18:23:57.908Z,3.75
2023-03-04T18:26:25.604Z,3.42
2023-03-04T18:28:53.264Z,3.58
2023-03-04T18:31:20.953Z,3.75
2023-03-04T18:33:47.692Z,3.90
2023-03-04T18:36:15.117Z,3.30
2023-03-04T18:38:42.129Z,3.63
2023-03-04T18:41:11.803Z,3.75
2023-03-04T18:43:39.022Z,3.80
2023-03-04T18:46:20.297Z,4.22
2023-03-04T18:48:50.359Z,3.93
2023-03-04T18:51:16.999Z,3.67
2023-03-04T18:53:43.609Z,4.22
2023-03-04T18:56:20.932Z,4.38
2023-03-04T18:58:50.412Z,3.88
2023-03-04T19:01:20.599Z,5.28
2023-03-04T19:03:48.108Z,4.53
2023-03-04T19:06:15.136Z,6.13
2023-03-04T19:08:41.671Z,4.13
2023-03-04T19:11:08.216Z,4.43
2023-03-04T19:13:34.856Z,4.30
2023-03-04T19:16:01.414Z,5.70
2023-03-04T19:18:29.207Z,3.38
2023-03-04T19:20:58.585Z,5.55
2023-03-04T19:23:25.089Z,7.90
2023-03-04T19:25:51.602Z,6.88
2023-03-04T19:28:18.907Z,5.90
2023-03-04T19:30:45.646Z,5.20
2023-03-04T19:33:12.261Z,4.78
2023-03-04T19:35:43.270Z,3.42
2023-03-04T19:38:09.831Z,3.70
2023-03-04T19:40:40.445Z,2.75
2023-03-04T19:43:08.062Z,2.55
2023-03-04T19:45:34.983Z,2.88
2023-03-04T19:48:03.091Z,2.20
2023-03-04T19:50:29.958Z,2.30
2023-03-04T19:52:56.684Z,2.30
2023-03-04T19:55:23.254Z,2.25
2023-03-04T19:57:49.867Z,2.40
2023-03-04T20:00:16.906Z,2.40
2023-03-04T20:02:45.563Z,2.40
2023-03-04T20:05:13.539Z,2.30
2023-03-04T20:07:40.517Z,2.50
2023-03-04T20:10:07.894Z,2.00
2023-03-04T20:12:36.274Z,2.20
2023-03-04T20:15:05.996Z,2.20
2023-03-04T20:17:32.527Z,2.00
2023-03-04T20:19:59.040Z,1.85
2023-03-04T20:22:25.707Z,2.00
2023-03-04T20:24:54.867Z,2.20
2023-03-04T20:27:21.496Z,2.00
2023-03-04T20:29:49.026Z,2.55
2023-03-04T20:32:15.738Z,2.40
2023-03-04T20:34:42.330Z,2.42
2023-03-04T20:37:08.954Z,2.30
2023-03-04T20:39:35.468Z,2.40
2023-03-04T20:42:01.991Z,2.75
2023-03-04T20:44:28.544Z,2.45
2023-03-04T20:46:55.682Z,2.42
2023-03-04T20:49:26.600Z,2.38
2023-03-04T20:52:00.693Z,2.33
2023-03-04T20:54:27.296Z,2.50
2023-03-04T20:56:53.859Z,3.20
2023-03-04T20:59:20.478Z,2.97
2023-03-04T21:01:50.022Z,2.72
2023-03-04T21:04:17.577Z,2.85
2023-03-04T21:06:45.245Z,3.00
2023-03-04T21:09:14.872Z,3.60
2023-03-04T21:11:42.455Z,3.10
2023-03-04T21:14:16.593Z,3.10
2023-03-04T21:16:43.474Z,2.83
2023-03-04T21:19:16.962Z,2.40
2023-03-04T21:21:44.311Z,2.53
2023-03-04T21:24:14.533Z,2.17
2023-03-04T21:26:45.144Z,3.00
2023-03-04T21:29:12.770Z,2.97
2023-03-04T21:31:43.297Z,3.15
2023-03-04T21:34:25.189Z,2.63
2023-03-04T21:36:51.804Z,2.97
2023-03-04T21:39:23.123Z,3.20
2023-03-04T21:41:50.365Z,2.72
2023-03-04T21:44:28.086Z,2.92
2023-03-04T21:46:56.546Z,3.08
2023-03-04T21:49:23.125Z,2.92
2023-03-04T21:51:49.666Z,2.75
2023-03-04T21:54:16.519Z,3.20
2023-03-04T21:56:43.272Z,3.13
2023-03-04T21:59:13.095Z,3.40
2023-03-04T22:01:39.812Z,2.95
2023-03-04T22:04:06.618Z,3.60
2023-03-04T22:06:33.817Z,3.35
2023-03-04T22:09:02.260Z,3.75
2023-03-04T22:11:30.132Z,4.18
2023-03-04T22:13:59.773Z,4.05
2023-03-04T22:16:27.117Z,3.92
2023-03-04T22:18:53.684Z,3.83
2023-03-04T22:21:21.911Z,3.72
2023-03-04T22:23:48.717Z,3.95
2023-03-04T22:26:21.181Z,4.10
2023-03-04T22:28:47.976Z,4.38
2023-03-04T22:31:29.783Z,4.07
2023-03-04T22:34:16.723Z,4.20
2023-03-04T22:36:46.155Z,4.13
2023-03-04T22:39:16.144Z,4.20
2023-03-04T22:41:42.722Z,4.45
2023-03-04T22:44:09.275Z,4.43
2023-03-04T22:46:38.282Z,4.40
2023-03-04T22:49:09.665Z,5.22
2023-03-04T22:51:37.383Z,4.40
2023-03-04T22:54:04.241Z,4.60
2023-03-04T22:56:30.831Z,4.85
2023-03-04T22:58:57.354Z,4.40
2023-03-04T23:01:24.525Z,4.50
2023-03-04T23:03:51.105Z,5.55
2023-03-04T23:06:25.161Z,5.53
2023-03-04T23:08:52.810Z,5.10
2023-03-04T23:11:26.347Z,6.15
2023-03-04T23:13:54.535Z,6.30
2023-03-04T23:16:22.433Z,5.95
2023-03-04T23:18:49.671Z,5.80
2023-03-04T23:21:20.195Z,6.28
2023-03-04T23:23:47.715Z,6.57
2023-03-04T23:26:18.465Z,6.75
2023-03-04T23:28:45.358Z,6.63
2023-03-04T23:31:14.754Z,6.90
2023-03-04T23:33:46.175Z,7.22
2023-03-04T23:36:15.576Z,7.07
2023-03-04T23:38:47.083Z,7.60
2023-03-04T23:41:15.962Z,7.72
2023-03-04T23:43:42.555Z,8.60
2023-03-04T23:46:11.590Z,8.77
2023-03-04T23:48:38.976Z,8.73
2023-03-04T23:51:05.693Z,9.48
2023-03-04T23:53:34.435Z,9.02
2023-03-04T23:56:01.347Z,9.25
2023-03-04T23:58:28.010Z,10.20
